Sunday, October 21, 2018, 1:46 PM EDT
Back to Local

KJYO, Leesburg / Godfrey

Location: Leesburg, VA, United States Lat: 39.083
Local Time: 1:46 PM EDT (17:46 GMT) Lon: -77.567
Time Zone: US/Eastern Elev: 390 ft

Show me the last for .
Show Decoded

2018-10-21 13:35 METAR KJYO 211735Z AUTO 35015G23KT 310V010 10SM SCT047 BKN050 11/01 A3014 RMK
                 AO2 =
2018-10-21 13:15 METAR KJYO 211715Z AUTO 31018G24KT 10SM SCT046 BKN050 11/02 A3014 RMK AO2 =
2018-10-21 12:55 METAR KJYO 211655Z AUTO 32016G26KT 10SM OVC046 10/01 A3016 RMK AO2 =
2018-10-21 12:35 METAR KJYO 211635Z AUTO 30015G25KT 10SM BKN044 OVC050 10/01 A3015 RMK AO2 =
2018-10-21 12:15 METAR KJYO 211615Z AUTO 33022G28KT 10SM BKN042 OVC050 10/02 A3015 RMK AO2 =
2018-10-21 11:55 METAR KJYO 211555Z AUTO 32020G26KT 10SM BKN042 OVC050 10/02 A3015 RMK AO2 =
2018-10-21 11:35 METAR KJYO 211535Z AUTO 32017G24KT 10SM SCT040 OVC048 10/02 A3014 RMK AO2 =
2018-10-21 11:15 METAR KJYO 211515Z AUTO 32019G26KT 10SM OVC047 09/02 A3014 RMK AO2 =
2018-10-21 10:55 METAR KJYO 211455Z AUTO 32015G26KT 10SM BKN045 08/02 A3013 RMK AO2 =
2018-10-21 10:35 METAR KJYO 211435Z AUTO 31014G24KT 10SM BKN043 OVC050 09/02 A3013 RMK AO2 =
2018-10-21 10:15 METAR KJYO 211415Z AUTO 32022G34KT 10SM BKN043 OVC050 08/01 A3014 RMK AO2 =
2018-10-21 09:55 METAR KJYO 211355Z AUTO 32016G25KT 10SM SCT041 OVC048 08/01 A3013 RMK AO2 =
2018-10-21 09:35 METAR KJYO 211335Z AUTO 33017G25KT 10SM SCT044 BKN049 BKN060 08/02 A3011 RMK AO2
                 =
2018-10-21 09:15 METAR KJYO 211315Z AUTO 33015G23KT 10SM BKN044 BKN060 08/01 A3010 RMK AO2 =
2018-10-21 08:55 METAR KJYO 211255Z AUTO 35015G25KT 10SM SCT044 OVC060 08/01 A3010 RMK AO2 =
2018-10-21 08:35 METAR KJYO 211235Z AUTO 36012G23KT 10SM SCT060 08/01 A3009 RMK AO2 =
2018-10-21 08:15 METAR KJYO 211215Z AUTO 35017G25KT 10SM CLR 07/01 A3008 RMK AO2 =
2018-10-21 07:55 METAR KJYO 211155Z AUTO 34009G15KT 10SM CLR 07/01 A3006 RMK AO2 =
2018-10-21 07:35 METAR KJYO 211135Z AUTO 35011G19KT 10SM CLR 07/01 A3005 RMK AO2 =
2018-10-21 07:15 METAR KJYO 211115Z AUTO 35013G19KT 10SM SCT039 SCT046 SCT050 07/02 A3003 RMK AO2
                 =
2018-10-21 06:55 METAR KJYO 211055Z AUTO 35019G24KT 10SM SCT038 SCT046 BKN050 07/02 A3001 RMK AO2
                 =
2018-10-21 06:35 METAR KJYO 211035Z AUTO 34014G22KT 10SM SCT040 SCT047 SCT050 07/02 A2999 RMK AO2
                 =
2018-10-21 06:15 METAR KJYO 211015Z AUTO 34016G24KT 10SM BKN040 BKN048 07/02 A2997 RMK AO2 =
2018-10-21 05:55 METAR KJYO 210955Z AUTO 34014G28KT 10SM SCT034 07/03 A2995 RMK AO2 =
2018-10-21 05:35 METAR KJYO 210935Z AUTO 32020G34KT 10SM SCT034 07/03 A2992 RMK AO2 =
2018-10-21 05:15 METAR KJYO 210915Z AUTO 32020G33KT 10SM BKN034 07/03 A2990 RMK AO2 =
2018-10-21 04:55 METAR KJYO 210855Z AUTO 32017G27KT 10SM BKN030 OVC035 07/04 A2989 RMK AO2 =
2018-10-21 04:35 METAR KJYO 210835Z AUTO 31018G28KT 10SM OVC030 07/04 A2988 RMK AO2 =
2018-10-21 04:15 METAR KJYO 210815Z AUTO 30025G32KT 10SM OVC032 08/04 A2986 RMK AO2 =
2018-10-21 03:55 METAR KJYO 210755Z AUTO 30021G27KT 10SM SCT036 BKN043 BKN050 08/03 A2985 RMK AO2
                 =
2018-10-21 03:35 METAR KJYO 210735Z AUTO 30021G28KT 10SM SCT120 08/03 A2984 RMK AO2 =
2018-10-21 03:15 METAR KJYO 210715Z AUTO 30018G26KT 10SM CLR 08/03 A2983 RMK AO2 =
2018-10-21 02:55 METAR KJYO 210655Z AUTO 29019G25KT 10SM CLR 09/03 A2982 RMK AO2 =
2018-10-21 02:35 METAR KJYO 210635Z AUTO 31019G30KT 10SM CLR 09/03 A2980 RMK AO2 =
2018-10-21 02:15 METAR KJYO 210615Z AUTO 32024G34KT 10SM CLR 10/03 A2979 RMK AO2 =
2018-10-21 01:55 METAR KJYO 210555Z AUTO 31020G28KT 10SM SCT085 SCT110 10/04 A2979 RMK AO2 =
2018-10-21 01:35 METAR KJYO 210535Z AUTO 30018G26KT 10SM SCT085 SCT110 10/05 A2978 RMK AO2 =
2018-10-21 01:15 METAR KJYO 210515Z AUTO 30014G17KT 10SM SCT095 BKN120 10/06 A2979 RMK AO2 =
2018-10-21 00:55 METAR KJYO 210455Z AUTO 29006KT 10SM OVC095 10/07 A2979 RMK AO2 =
2018-10-21 00:35 METAR KJYO 210435Z AUTO 31008KT 10SM SCT060 OVC095 10/07 A2979 RMK AO2 =
2018-10-21 00:15 METAR KJYO 210415Z AUTO 30015G23KT 10SM -RA SCT033 BKN065 OVC070 10/07 A2980 RMK
                 AO2 =
2018-10-20 23:55 METAR KJYO 210355Z AUTO 31019G25KT 10SM -RA SCT038 BKN060 OVC100 11/07 A2979 RMK
                 AO2 =
2018-10-20 23:35 METAR KJYO 210335Z AUTO 30013G16KT 10SM SCT060 OVC100 11/07 A2978 RMK AO2 =
2018-10-20 23:15 METAR KJYO 210315Z AUTO 29006KT 10SM SCT070 OVC090 10/08 A2977 RMK AO2 =
2018-10-20 22:55 METAR KJYO 210255Z AUTO 28008KT 10SM SCT070 OVC090 10/08 A2976 RMK AO2 P0001 =
2018-10-20 22:35 METAR KJYO 210235Z AUTO 28007KT 10SM SCT060 SCT070 OVC080 10/08 A2976 RMK AO2
                 P0001 =
2018-10-20 22:15 METAR KJYO 210215Z AUTO 26005KT 10SM -RA BKN060 OVC070 10/08 A2976 RMK AO2 P0001
                 =
2018-10-20 21:55 METAR KJYO 210155Z AUTO 29022G32KT 10SM -DZ SCT046 BKN050 OVC070 11/08 A2978 RMK
                 AO2 =
2018-10-20 21:35 METAR KJYO 210135Z AUTO 32021G35KT 10SM RA SCT044 BKN070 OVC080 11/08 A2977 RMK
                 AO2 LTG DSNT W =
2018-10-20 21:15 METAR KJYO 210115Z AUTO 27005KT 10SM SCT075 BKN110 13/07 A2971 RMK AO2 LTG DSNT
                 W =
2018-10-20 20:55 METAR KJYO 210055Z AUTO 28006KT 10SM SCT110 13/06 A2970 RMK AO2 LTG DSNT W =
2018-10-20 20:35 METAR KJYO 210035Z AUTO 24003KT 10SM BKN100 15/06 A2970 RMK AO2 =
2018-10-20 20:15 METAR KJYO 210015Z AUTO 25006KT 10SM VCTS BKN110 16/06 A2971 RMK AO2 =
2018-10-20 19:55 METAR KJYO 202355Z AUTO 25006G10KT 10SM BKN100 16/06 A2970 RMK AO2 LTG DSNT W =
2018-10-20 19:35 METAR KJYO 202335Z AUTO 25007KT 10SM BKN100 16/07 A2970 RMK AO2 =
2018-10-20 19:15 METAR KJYO 202315Z AUTO 28008KT 10SM CLR 15/07 A2970 RMK AO2 =
2018-10-20 18:55 METAR KJYO 202255Z AUTO 29009KT 10SM CLR 15/07 A2969 RMK AO2 =
2018-10-20 18:35 METAR KJYO 202235Z AUTO 30009KT 10SM CLR 16/07 A2968 RMK AO2 =
2018-10-20 18:15 METAR KJYO 202215Z AUTO 31010G17KT 10SM CLR 17/07 A2967 RMK AO2 =
2018-10-20 17:55 METAR KJYO 202155Z AUTO 31012G16KT 10SM CLR 17/08 A2968 RMK AO2 LTG DSNT N =
2018-10-20 17:35 METAR KJYO 202135Z AUTO 29011G19KT 10SM CLR 18/08 A2967 RMK AO2 =
2018-10-20 17:15 METAR KJYO 202115Z AUTO 29006KT 10SM SCT075 18/08 A2967 RMK AO2 =
2018-10-20 16:55 METAR KJYO 202055Z AUTO 27005KT 10SM SCT070 BKN085 20/08 A2967 RMK AO2 =
2018-10-20 16:35 METAR KJYO 202035Z AUTO 29008KT 10SM SCT070 OVC080 18/08 A2968 RMK AO2 =
2018-10-20 16:15 METAR KJYO 202015Z AUTO 30008KT 10SM OVC080 19/10 A2969 RMK AO2 =
2018-10-20 15:55 METAR KJYO 201955Z AUTO 31010KT 10SM OVC075 19/10 A2969 RMK AO2 =
2018-10-20 15:35 METAR KJYO 201935Z AUTO 32008G14KT 10SM SCT060 BKN075 19/10 A2970 RMK AO2 =
2018-10-20 15:15 METAR KJYO 201915Z AUTO 30008KT 280V340 10SM BKN060 BKN075 19/10 A2971 RMK AO2 =
2018-10-20 14:55 METAR KJYO 201855Z AUTO 27009G19KT 10SM SCT060 SCT070 20/10 A2972 RMK AO2 =
2018-10-20 14:35 METAR KJYO 201835Z AUTO 29011G16KT 10SM SCT050 BKN060 18/10 A2973 RMK AO2 =
2018-10-20 14:15 METAR KJYO 201815Z AUTO 33006KT 10SM SCT050 SCT060 BKN070 18/10 A2975 RMK AO2 =
2018-10-20 13:55 METAR KJYO 201755Z AUTO 31004KT 10SM SCT049 SCT070 19/11 A2976 RMK AO2 =

Support USWX by starting your Amazon purchase here.